Time;durP1;ratioP1;P1;durP2;ratioP2;P2;SDS_P1;SDS_P2;PMS_P1;PMS_P2;Temp;Humidity;BMP_temperature;BMP_pressure;BME280_temperature;BME280_humidity;BME280_pressure;Samples;Min_cycle;Max_cycle;Signal;HPM_P1;HPM_P2
2022/05/29 00:01:16;;;;;;;6.10;3.10;;;15.80;81.80;;;;;;10409529;28;20263;-82
2022/05/29 00:06:18;;;;;;;4.27;3.20;;;15.60;85.50;;;;;;10397082;28;20226;-81
2022/05/29 00:11:22;;;;;;;4.00;3.00;;;15.40;86.20;;;;;;10388029;28;20236;-82
2022/05/29 00:16:24;;;;;;;2.97;2.70;;;15.30;87.90;;;;;;10381900;28;20284;-80
2022/05/29 00:21:31;;;;;;;2.67;2.47;;;15.30;86.60;;;;;;10394655;28;20198;-80
2022/05/29 00:26:34;;;;;;;3.30;2.63;;;15.20;88.20;;;;;;10391505;28;20219;-83
2022/05/29 00:31:40;;;;;;;2.77;2.57;;;15.10;88.60;;;;;;10367223;28;20230;-83
2022/05/29 00:36:44;;;;;;;3.07;2.87;;;15.10;89.90;;;;;;10361723;28;20699;-82
2022/05/29 00:41:47;;;;;;;3.10;2.90;;;15.10;88.80;;;;;;10397360;28;20744;-82
2022/05/29 00:46:51;;;;;;;2.97;2.67;;;15.10;87.40;;;;;;10394450;28;20214;-83
2022/05/29 00:51:57;;;;;;;3.10;2.83;;;15.10;87.10;;;;;;10385262;28;20198;-82
2022/05/29 00:57:01;;;;;;;2.73;2.53;;;15.00;87.80;;;;;;10389956;28;20623;-83
2022/05/29 01:02:05;;;;;;;3.60;2.90;;;15.00;88.20;;;;;;10410810;28;20238;-83
2022/05/29 01:07:09;;;;;;;3.73;2.60;;;14.90;87.10;;;;;;10397010;28;20252;-79
2022/05/29 01:12:25;;;;;;;3.37;3.07;;;14.90;88.30;;;;;;10397101;28;20248;-80
2022/05/29 01:17:34;;;;;;;4.93;2.87;;;14.90;88.90;;;;;;10375839;28;20210;-80
2022/05/29 01:23:12;;;;;;;2.90;2.70;;;14.90;89.00;;;;;;10413881;28;20206;-79
2022/05/29 01:28:30;;;;;;;3.10;2.87;;;14.90;88.40;;;;;;10384499;28;20228;-82
2022/05/29 01:33:38;;;;;;;2.90;2.70;;;14.80;87.90;;;;;;10406130;28;20194;-80
2022/05/29 01:38:45;;;;;;;3.37;3.07;;;14.80;87.40;;;;;;10376285;28;20220;-83
2022/05/29 01:43:55;;;;;;;3.60;3.30;;;14.70;88.30;;;;;;10386834;28;20686;-83
2022/05/29 01:49:04;;;;;;;3.37;3.00;;;14.60;88.00;;;;;;10413307;28;20214;-83
2022/05/29 01:54:13;;;;;;;3.97;3.30;;;14.60;88.10;;;;;;10404926;28;20217;-83
2022/05/29 01:59:21;;;;;;;4.87;2.90;;;14.70;89.50;;;;;;10421472;28;20233;-81
2022/05/29 02:04:27;;;;;;;2.90;2.70;;;14.70;88.70;;;;;;10393742;28;20237;-83
2022/05/29 02:09:33;;;;;;;4.07;3.10;;;14.70;88.30;;;;;;10396867;28;20219;-82
2022/05/29 02:14:40;;;;;;;3.87;3.50;;;14.70;88.60;;;;;;10417292;28;20221;-81
2022/05/29 02:19:47;;;;;;;2.93;2.63;;;14.60;87.30;;;;;;10419473;28;20191;-80
2022/05/29 02:24:53;;;;;;;3.13;2.87;;;14.60;86.50;;;;;;10411241;28;20713;-81
2022/05/29 02:29:58;;;;;;;3.07;2.87;;;14.50;86.30;;;;;;10380610;28;20218;-81
2022/05/29 02:35:08;;;;;;;4.40;3.40;;;14.40;85.40;;;;;;10417139;28;20221;-80
2022/05/29 02:40:21;;;;;;;4.73;3.20;;;14.30;84.70;;;;;;10398800;28;20202;-82
2022/05/29 02:45:34;;;;;;;3.57;2.97;;;14.30;84.70;;;;;;10421110;28;20232;-82
2022/05/29 02:50:43;;;;;;;7.43;2.80;;;14.40;83.90;;;;;;10392458;28;20237;-80
2022/05/29 02:55:46;;;;;;;2.93;2.60;;;14.30;83.80;;;;;;10410834;28;20229;-80
2022/05/29 03:01:18;;;;;;;3.23;2.50;;;14.30;84.70;;;;;;10393786;28;20206;-81
2022/05/29 03:06:34;;;;;;;2.90;2.57;;;14.40;83.60;;;;;;10404682;28;20222;-81
2022/05/29 03:11:40;;;;;;;2.83;2.53;;;14.40;83.50;;;;;;10408778;28;20205;-82
2022/05/29 03:17:02;;;;;;;3.57;2.50;;;14.40;83.20;;;;;;10396366;28;20289;-80
2022/05/29 03:22:16;;;;;;;3.67;3.37;;;14.50;82.80;;;;;;10426180;28;20194;-83
2022/05/29 03:27:24;;;;;;;3.33;2.60;;;14.50;81.50;;;;;;10402767;28;20223;-81
2022/05/29 03:32:29;;;;;;;4.00;2.63;;;14.50;81.90;;;;;;10402098;28;20226;-83
2022/05/29 03:37:31;;;;;;;3.00;2.77;;;14.50;82.20;;;;;;10381528;28;20305;-83
2022/05/29 03:42:34;;;;;;;6.37;2.93;;;14.50;81.70;;;;;;10399413;28;20213;-83
2022/05/29 03:47:39;;;;;;;2.87;2.67;;;14.60;82.90;;;;;;10375290;28;20684;-82
2022/05/29 03:52:41;;;;;;;7.30;2.97;;;14.60;79.50;;;;;;10398508;28;20209;-83
2022/05/29 03:57:43;;;;;;;2.93;2.83;;;14.60;78.20;;;;;;10412463;28;20211;-81
2022/05/29 04:02:47;;;;;;;2.60;2.50;;;14.70;77.60;;;;;;10412170;28;20233;-81
2022/05/29 04:13:11;;;;;;;3.63;2.47;;;15.00;81.60;;;;;;10393447;28;20567;-81
2022/05/29 04:18:15;;;;;;;2.77;2.53;;;15.00;79.60;;;;;;10402748;28;20618;-83
2022/05/29 04:23:17;;;;;;;3.17;2.90;;;15.00;78.50;;;;;;10413119;28;20202;-82
2022/05/29 04:28:21;;;;;;;3.50;3.10;;;14.90;77.80;;;;;;10407130;28;20218;-81
2022/05/29 04:33:24;;;;;;;4.07;2.77;;;15.00;79.10;;;;;;10385454;28;20297;-83
2022/05/29 04:38:27;;;;;;;3.03;2.53;;;15.00;79.80;;;;;;10381087;28;20218;-80
2022/05/29 04:43:29;;;;;;;5.90;2.90;;;15.00;78.30;;;;;;10390691;28;20222;-81
2022/05/29 04:48:33;;;;;;;4.50;3.07;;;15.00;81.00;;;;;;10411563;28;20284;-82
2022/05/29 04:53:36;;;;;;;3.37;3.10;;;15.00;81.20;;;;;;10402470;28;20669;-83
2022/05/29 04:58:38;;;;;;;4.27;2.87;;;15.00;81.50;;;;;;10416454;28;20248;-82
2022/05/29 05:03:42;;;;;;;4.40;3.93;;;14.90;86.40;;;;;;10396677;28;20256;-82
2022/05/29 05:08:44;;;;;;;5.00;4.70;;;14.60;91.30;;;;;;10392179;28;20253;-82
2022/05/29 05:13:46;;;;;;;5.20;4.90;;;14.20;92.00;;;;;;10400118;28;20605;-82
2022/05/29 05:18:50;;;;;;;5.23;4.73;;;13.80;90.80;;;;;;10389932;28;20195;-81
2022/05/29 05:23:52;;;;;;;6.10;4.93;;;13.70;95.10;;;;;;10413640;28;20216;-80
2022/05/29 05:28:54;;;;;;;5.80;5.30;;;13.60;96.00;;;;;;10415015;28;20232;-81
2022/05/29 05:33:58;;;;;;;6.03;5.23;;;13.60;96.20;;;;;;10384637;28;20198;-82
2022/05/29 05:39:00;;;;;;;5.03;4.20;;;13.60;95.60;;;;;;10378694;28;20198;-81
2022/05/29 05:44:02;;;;;;;5.23;4.80;;;13.50;95.90;;;;;;10377932;28;20232;-82
2022/05/29 05:49:06;;;;;;;4.43;4.17;;;13.60;95.80;;;;;;10403983;28;20301;-81
2022/05/29 05:54:08;;;;;;;7.40;4.63;;;13.50;94.40;;;;;;10384505;28;20284;-81
2022/05/29 05:59:11;;;;;;;4.30;3.97;;;13.50;93.40;;;;;;10392431;28;20202;-83
2022/05/29 06:04:14;;;;;;;4.70;4.30;;;13.60;94.60;;;;;;10392912;28;20313;-82
2022/05/29 06:09:17;;;;;;;4.43;4.00;;;13.90;94.90;;;;;;10396092;28;20225;-81
2022/05/29 06:14:19;;;;;;;3.63;3.43;;;14.10;94.00;;;;;;10396220;28;20268;-81
2022/05/29 06:19:22;;;;;;;3.50;3.30;;;14.40;93.20;;;;;;10385686;28;20201;-81
2022/05/29 06:24:25;;;;;;;3.80;3.20;;;14.60;90.30;;;;;;10393460;28;20803;-82
2022/05/29 06:29:27;;;;;;;4.13;3.47;;;14.70;91.30;;;;;;10399287;28;20246;-82
2022/05/29 06:34:31;;;;;;;3.23;2.97;;;15.00;90.90;;;;;;10375414;28;20222;-81
2022/05/29 06:39:36;;;;;;;2.73;2.53;;;15.30;91.00;;;;;;10381183;28;20286;-82
2022/05/29 06:44:44;;;;;;;5.67;3.07;;;15.70;87.70;;;;;;10376528;28;20246;-83
2022/05/29 06:49:49;;;;;;;3.30;3.00;;;16.10;85.20;;;;;;10387956;28;20268;-80
2022/05/29 06:54:51;;;;;;;3.37;2.60;;;16.20;87.50;;;;;;10394324;28;20245;-80
2022/05/29 07:10:35;;;;;;;4.23;2.80;;;16.90;81.70;;;;;;10398963;28;20218;-81
2022/05/29 07:15:38;;;;;;;4.20;2.83;;;17.20;80.00;;;;;;10432889;28;20249;-81
2022/05/29 07:20:42;;;;;;;2.73;2.53;;;17.50;80.20;;;;;;10405457;28;20210;-81
2022/05/29 07:25:44;;;;;;;2.93;2.70;;;17.80;76.60;;;;;;10408931;28;20219;-80
2022/05/29 07:30:48;;;;;;;2.63;2.43;;;17.90;75.10;;;;;;10407962;28;20222;-80
2022/05/29 07:35:52;;;;;;;6.30;2.50;;;18.10;77.10;;;;;;10411608;28;20693;-80
2022/05/29 07:40:54;;;;;;;3.10;2.60;;;18.10;73.70;;;;;;10413646;28;20198;-79
2022/05/29 07:45:59;;;;;;;2.47;2.20;;;18.20;74.20;;;;;;10395589;28;20322;-79
2022/05/29 07:51:02;;;;;;;3.20;2.90;;;18.10;71.20;;;;;;10399179;28;20266;-81
2022/05/29 07:56:05;;;;;;;3.03;2.57;;;18.10;72.50;;;;;;10400000;28;20219;-81
2022/05/29 08:01:07;;;;;;;3.20;2.00;;;18.10;68.80;;;;;;10422576;28;20202;-81
2022/05/29 08:06:11;;;;;;;4.60;2.93;;;18.40;69.60;;;;;;10412915;28;20234;-82
2022/05/29 08:11:15;;;;;;;3.93;2.60;;;19.20;68.60;;;;;;10402286;28;20222;-81
2022/05/29 08:16:18;;;;;;;4.10;2.43;;;19.30;67.30;;;;;;10407197;28;20256;-81
2022/05/29 08:21:22;;;;;;;3.37;2.37;;;19.00;67.60;;;;;;10413589;28;20214;-81
2022/05/29 08:31:40;;;;;;;3.30;2.80;;;18.40;69.50;;;;;;10386891;28;20218;-81
2022/05/29 08:36:43;;;;;;;2.93;2.53;;;18.40;70.60;;;;;;10404409;28;20225;-81
2022/05/29 08:41:51;;;;;;;2.80;2.60;;;18.40;69.90;;;;;;10399709;28;20253;-79
2022/05/29 08:47:00;;;;;;;3.10;2.83;;;18.40;70.70;;;;;;10414185;28;20241;-80
2022/05/29 08:52:24;;;;;;;3.07;2.77;;;18.30;71.90;;;;;;10404883;28;20245;-81
2022/05/29 08:57:41;;;;;;;7.70;3.60;;;18.10;71.30;;;;;;10386098;28;20257;-80
2022/05/29 09:02:57;;;;;;;3.20;3.00;;;17.90;71.00;;;;;;10373987;28;20237;-81
2022/05/29 09:08:05;;;;;;;5.47;3.40;;;17.80;72.30;;;;;;10404528;28;20230;-81
2022/05/29 09:13:16;;;;;;;4.77;3.33;;;17.70;71.60;;;;;;10406969;28;20224;-81
2022/05/29 09:18:26;;;;;;;3.63;2.83;;;17.60;72.10;;;;;;10383304;28;20219;-81
2022/05/29 09:23:41;;;;;;;4.27;3.30;;;17.60;72.40;;;;;;10414972;28;20201;-79
2022/05/29 09:28:44;;;;;;;3.23;2.93;;;17.60;74.20;;;;;;10403961;28;20205;-80
2022/05/29 09:33:47;;;;;;;4.07;3.67;;;17.70;75.60;;;;;;10405160;28;20274;-80
2022/05/29 09:38:54;;;;;;;5.20;3.07;;;17.80;74.80;;;;;;10373131;28;20186;-80
2022/05/29 09:44:13;;;;;;;5.67;3.70;;;17.80;75.10;;;;;;10393362;28;20202;-80
2022/05/29 09:54:50;;;;;;;6.63;3.17;;;17.80;73.20;;;;;;10390931;28;20660;-81
2022/05/29 09:59:59;;;;;;;6.83;2.67;;;17.90;73.30;;;;;;10403804;28;20189;-81
2022/05/29 10:05:01;;;;;;;2.83;2.60;;;18.20;73.40;;;;;;10391613;28;20230;-82
2022/05/29 10:10:07;;;;;;;4.87;3.03;;;18.50;73.50;;;;;;10387975;28;20226;-81
2022/05/29 10:15:34;;;;;;;2.60;2.40;;;18.60;72.10;;;;;;10387901;28;20230;-81
2022/05/29 10:20:39;;;;;;;5.27;2.50;;;18.40;71.10;;;;;;10372624;28;20199;-81
2022/05/29 10:25:55;;;;;;;4.60;2.43;;;18.10;69.20;;;;;;10372759;28;20702;-80
2022/05/29 10:30:59;;;;;;;3.43;2.33;;;17.90;69.40;;;;;;10376662;28;20250;-81
2022/05/29 10:36:13;;;;;;;5.30;2.53;;;17.50;67.70;;;;;;10369642;28;20222;-80
2022/05/29 10:41:32;;;;;;;3.47;2.70;;;17.10;65.60;;;;;;10384160;28;20212;-82
2022/05/29 10:46:42;;;;;;;3.30;2.50;;;16.90;69.40;;;;;;10387523;28;20249;-82
2022/05/29 10:52:00;;;;;;;3.10;2.80;;;16.80;74.20;;;;;;10387188;28;20230;-81
2022/05/29 10:57:19;;;;;;;4.50;2.97;;;16.70;74.60;;;;;;10384930;28;20722;-81
2022/05/29 11:08:21;;;;;;;7.10;5.13;;;16.50;75.80;;;;;;10175068;29;20725;-81
2022/05/29 11:13:53;;;;;;;3.53;2.57;;;16.50;74.80;;;;;;10341702;28;20207;-81
2022/05/29 11:19:19;;;;;;;2.30;1.93;;;17.00;73.30;;;;;;10402194;28;20190;-81
2022/05/29 11:24:43;;;;;;;1.90;1.80;;;17.50;71.60;;;;;;10381110;28;20222;-82
2022/05/29 11:29:59;;;;;;;2.73;2.07;;;18.10;67.30;;;;;;10398780;28;20712;-81
2022/05/29 11:35:18;;;;;;;2.50;2.20;;;18.60;67.00;;;;;;10372222;28;20320;-81
2022/05/29 11:40:23;;;;;;;2.53;2.13;;;18.90;67.20;;;;;;10393700;28;20312;-81
2022/05/29 11:51:07;;;;;;;2.53;2.33;;;19.10;63.80;;;;;;10390433;28;20221;-81
2022/05/29 11:51:15;;;;;;;3.07;2.00;;;19.20;63.70;;;;;;10382308;28;20305;-82
2022/05/29 11:56:25;;;;;;;2.70;1.70;;;19.40;63.70;;;;;;10380820;28;20234;-82
2022/05/29 12:01:35;;;;;;;2.70;1.90;;;19.50;62.60;;;;;;10390719;28;20285;-82
2022/05/29 12:06:43;;;;;;;1.57;1.30;;;19.40;61.30;;;;;;10383194;28;20226;-79
2022/05/29 12:11:49;;;;;;;3.07;2.03;;;19.20;63.20;;;;;;10397355;28;20280;-79
2022/05/29 12:16:58;;;;;;;3.93;2.13;;;19.00;61.70;;;;;;10389964;28;20273;-78
2022/05/29 12:22:04;;;;;;;3.20;2.50;;;18.90;65.10;;;;;;10384748;28;20229;-79
2022/05/29 12:27:11;;;;;;;3.93;2.47;;;18.60;67.50;;;;;;10401957;28;20276;-81
2022/05/29 12:32:21;;;;;;;2.33;2.13;;;18.30;66.50;;;;;;10382983;28;20293;-80
2022/05/29 12:37:41;;;;;;;3.70;2.60;;;17.80;67.00;;;;;;10377355;28;20218;-81
2022/05/29 12:43:02;;;;;;;3.73;2.47;;;17.50;68.50;;;;;;10386178;28;20226;-80
2022/05/29 12:48:27;;;;;;;2.80;2.60;;;17.30;69.90;;;;;;10393505;28;20694;-81
2022/05/29 12:54:05;;;;;;;3.00;2.47;;;17.20;70.90;;;;;;10383290;28;20217;-81
2022/05/29 12:59:26;;;;;;;3.10;2.00;;;17.20;69.40;;;;;;10393533;28;20205;-81
2022/05/29 13:05:03;;;;;;;2.30;2.10;;;17.00;68.00;;;;;;10401821;28;20293;-81
2022/05/29 13:10:11;;;;;;;2.63;2.07;;;16.90;66.90;;;;;;10417771;28;20304;-80
2022/05/29 13:15:24;;;;;;;2.27;2.07;;;16.90;69.20;;;;;;10393767;28;20301;-81
2022/05/29 13:20:28;;;;;;;3.50;1.80;;;16.80;69.80;;;;;;10406393;28;20213;-81
2022/05/29 13:25:32;;;;;;;3.70;2.40;;;16.80;69.20;;;;;;10402486;28;20377;-80
2022/05/29 13:31:04;;;;;;;2.50;2.30;;;16.90;69.30;;;;;;10411116;28;20725;-80
2022/05/29 13:36:08;;;;;;;2.00;1.70;;;16.70;67.80;;;;;;10388460;28;20226;-81
2022/05/29 13:41:26;;;;;;;2.50;2.30;;;16.60;68.20;;;;;;10394075;28;20191;-80
2022/05/29 13:46:29;;;;;;;3.70;2.40;;;16.50;70.20;;;;;;10373302;28;20324;-79
2022/05/29 13:51:41;;;;;;;2.20;2.00;;;16.40;69.00;;;;;;10398026;28;20249;-81
2022/05/29 13:57:01;;;;;;;5.67;2.10;;;16.50;65.70;;;;;;10407651;28;20228;-80
2022/05/29 14:07:34;;;;;;;2.47;1.83;;;16.50;71.30;;;;;;10383447;28;20600;-79
2022/05/29 14:13:04;;;;;;;3.97;2.50;;;16.50;67.90;;;;;;10391953;28;20284;-80
2022/05/29 14:18:12;;;;;;;2.73;1.97;;;16.70;66.60;;;;;;10383429;28;20230;-79
2022/05/29 14:23:34;;;;;;;2.33;2.13;;;16.70;67.60;;;;;;10386796;28;20693;-81
2022/05/29 14:28:55;;;;;;;2.73;2.20;;;16.90;66.00;;;;;;10414739;28;20244;-80
2022/05/29 14:34:13;;;;;;;3.93;2.87;;;16.90;72.00;;;;;;10392865;28;20190;-80
2022/05/29 14:39:38;;;;;;;3.27;1.90;;;16.80;75.10;;;;;;10401250;28;20194;-79
2022/05/29 14:44:44;;;;;;;4.23;2.80;;;16.60;76.10;;;;;;10370894;28;20230;-79
2022/05/29 14:50:00;;;;;;;2.70;2.23;;;16.60;77.50;;;;;;10401390;28;20219;-79
2022/05/29 14:55:09;;;;;;;4.20;2.50;;;16.60;76.50;;;;;;10404510;28;20281;-80
2022/05/29 15:00:22;;;;;;;2.27;2.07;;;16.70;75.70;;;;;;10410199;28;20194;-79
2022/05/29 15:05:25;;;;;;;1.90;1.80;;;16.80;72.30;;;;;;10396389;28;20234;-78
2022/05/29 15:10:33;;;;;;;2.90;2.70;;;16.90;72.80;;;;;;10397895;28;20694;-79
2022/05/29 15:15:44;;;;;;;2.47;2.27;;;16.70;71.70;;;;;;10397678;28;20222;-77
2022/05/29 15:26:15;;;;;;;1.77;1.67;;;16.20;68.20;;;;;;10400765;28;20221;-80
2022/05/29 15:31:23;;;;;;;2.23;2.03;;;16.10;70.40;;;;;;10369020;28;20280;-80
2022/05/29 15:36:30;;;;;;;2.43;1.97;;;16.10;67.30;;;;;;10384659;28;20305;-80
2022/05/29 15:41:46;;;;;;;2.20;2.10;;;16.20;67.90;;;;;;10395899;28;20194;-80
2022/05/29 15:47:02;;;;;;;2.47;2.20;;;15.90;70.10;;;;;;10390238;28;20257;-80
2022/05/29 15:52:08;;;;;;;2.10;2.00;;;15.90;68.10;;;;;;10408096;28;20225;-80
2022/05/29 15:57:21;;;;;;;2.63;2.43;;;16.00;70.00;;;;;;10401005;28;20249;-80
2022/05/29 16:02:26;;;;;;;2.67;2.37;;;16.10;69.90;;;;;;10399192;28;20224;-79
2022/05/29 16:07:34;;;;;;;3.10;2.47;;;16.20;71.90;;;;;;10395562;28;20230;-79
2022/05/29 16:12:47;;;;;;;2.33;2.13;;;16.30;67.60;;;;;;10392051;28;20230;-80
2022/05/29 16:17:53;;;;;;;2.73;2.53;;;16.30;69.70;;;;;;10395084;28;20285;-80
2022/05/29 16:23:04;;;;;;;3.97;2.60;;;16.30;67.20;;;;;;10393221;28;20207;-80
2022/05/29 16:28:17;;;;;;;2.63;2.43;;;16.40;67.30;;;;;;10411480;28;20221;-78
2022/05/29 16:33:23;;;;;;;3.30;2.70;;;16.40;64.40;;;;;;10405382;28;20272;-77
2022/05/29 16:49:29;;;;;;;2.53;2.40;;;16.60;67.20;;;;;;10399810;28;20206;-79
2022/05/29 16:54:41;;;;;;;1.90;1.70;;;16.60;67.30;;;;;;10395110;28;20308;-79
2022/05/29 16:59:49;;;;;;;4.60;2.30;;;16.70;63.10;;;;;;10383057;28;20248;-78
2022/05/29 17:04:59;;;;;;;2.80;2.43;;;16.70;63.90;;;;;;10385117;28;20513;-78
2022/05/29 17:10:15;;;;;;;3.20;2.47;;;16.60;65.60;;;;;;10371093;28;20241;-78
2022/05/29 17:15:22;;;;;;;2.53;2.20;;;16.50;64.40;;;;;;10389081;28;20221;-78
2022/05/29 17:20:25;;;;;;;2.90;2.30;;;16.50;61.50;;;;;;10378911;28;20198;-78
2022/05/29 17:25:34;;;;;;;2.93;2.50;;;16.50;64.50;;;;;;10385817;28;20233;-79
2022/05/29 17:30:40;;;;;;;3.30;2.10;;;16.50;63.90;;;;;;10391242;28;20272;-79
2022/05/29 17:35:45;;;;;;;2.43;2.07;;;16.40;64.20;;;;;;10396667;28;20273;-78
2022/05/29 17:40:50;;;;;;;4.50;2.43;;;16.40;62.70;;;;;;10390445;28;20257;-78
2022/05/29 17:46:00;;;;;;;3.90;2.60;;;16.40;63.80;;;;;;10377310;28;20257;-78
2022/05/29 17:51:14;;;;;;;2.70;2.37;;;16.40;66.90;;;;;;10366844;28;20283;-79
2022/05/29 17:56:17;;;;;;;4.13;3.33;;;16.40;65.90;;;;;;10386314;28;20214;-79
2022/05/29 18:01:21;;;;;;;3.80;3.10;;;16.30;67.10;;;;;;10386806;28;20602;-79
2022/05/29 18:06:23;;;;;;;2.37;2.00;;;16.30;66.00;;;;;;10395177;28;20265;-78
2022/05/29 18:11:28;;;;;;;6.73;3.30;;;16.10;64.40;;;;;;10387641;28;20333;-81
2022/05/29 18:16:31;;;;;;;3.90;2.70;;;16.10;67.70;;;;;;10394359;28;20240;-79
2022/05/29 18:21:33;;;;;;;4.90;2.80;;;16.20;67.60;;;;;;10417830;28;20312;-79
2022/05/29 18:26:37;;;;;;;5.17;4.17;;;16.20;67.50;;;;;;10377131;28;20214;-80
2022/05/29 18:31:41;;;;;;;5.40;3.77;;;16.20;68.60;;;;;;10383106;28;20217;-79
2022/05/29 18:36:44;;;;;;;3.00;2.30;;;16.00;68.20;;;;;;10385548;28;20926;-79
2022/05/29 18:41:46;;;;;;;2.93;2.17;;;16.00;71.90;;;;;;10385320;28;20193;-79
2022/05/29 18:46:50;;;;;;;2.90;2.70;;;16.00;70.50;;;;;;10406785;28;20230;-79
2022/05/29 18:51:52;;;;;;;2.93;2.60;;;15.90;70.90;;;;;;10397487;28;20237;-79
2022/05/29 18:56:56;;;;;;;3.80;2.50;;;15.90;71.70;;;;;;10396613;28;20214;-79
2022/05/29 19:02:00;;;;;;;3.07;2.80;;;15.90;72.30;;;;;;10385071;28;20194;-80
2022/05/29 19:07:02;;;;;;;2.80;2.60;;;15.80;72.40;;;;;;10404191;28;20236;-79
2022/05/29 19:12:06;;;;;;;2.67;2.47;;;15.70;72.30;;;;;;10409359;28;20222;-78
2022/05/29 19:22:25;;;;;;;3.00;2.60;;;15.50;70.80;;;;;;10406316;28;20198;-78
2022/05/29 19:27:29;;;;;;;4.00;3.63;;;15.40;72.00;;;;;;10390968;28;20229;-79
2022/05/29 19:32:32;;;;;;;4.93;3.10;;;15.30;72.20;;;;;;10405760;28;20246;-79
2022/05/29 19:37:36;;;;;;;3.40;3.13;;;15.10;73.00;;;;;;10392567;28;20230;-79
2022/05/29 19:42:40;;;;;;;3.10;2.80;;;15.00;72.20;;;;;;10421509;28;20194;-78
2022/05/29 19:47:44;;;;;;;3.83;2.70;;;14.90;73.40;;;;;;10387331;28;20273;-79
2022/05/29 19:52:47;;;;;;;2.97;2.77;;;14.80;73.60;;;;;;10427466;28;20277;-78
2022/05/29 19:57:50;;;;;;;4.10;3.50;;;14.60;73.40;;;;;;10402898;28;20221;-78
2022/05/29 20:02:53;;;;;;;3.47;3.10;;;14.60;73.00;;;;;;10426603;28;20191;-78
2022/05/29 20:07:55;;;;;;;3.73;3.53;;;14.50;73.10;;;;;;10397922;28;20305;-79
2022/05/29 20:12:59;;;;;;;4.13;3.83;;;14.50;73.60;;;;;;10405909;28;20218;-78
2022/05/29 20:18:02;;;;;;;3.70;3.50;;;14.40;74.00;;;;;;10401889;28;20226;-78
2022/05/29 20:23:07;;;;;;;3.97;2.77;;;14.40;74.30;;;;;;10412317;28;20198;-79
2022/05/29 20:28:09;;;;;;;3.03;2.80;;;14.30;73.80;;;;;;10404703;28;20566;-80
2022/05/29 20:33:15;;;;;;;3.60;2.83;;;14.20;75.00;;;;;;10393383;28;20202;-80
2022/05/29 20:38:18;;;;;;;3.97;2.80;;;14.20;76.30;;;;;;10403366;28;20253;-78
2022/05/29 20:43:20;;;;;;;2.53;2.40;;;14.10;76.10;;;;;;10402053;28;20293;-81
2022/05/29 20:48:24;;;;;;;3.70;2.97;;;14.00;77.00;;;;;;10380659;28;20333;-80
2022/05/29 20:53:26;;;;;;;2.70;2.50;;;13.80;76.20;;;;;;10390937;28;20244;-79
2022/05/29 20:58:31;;;;;;;3.37;3.07;;;13.70;78.50;;;;;;10391286;28;20226;-80
2022/05/29 21:03:34;;;;;;;3.40;3.10;;;13.70;78.30;;;;;;10399765;28;20221;-79
2022/05/29 21:08:37;;;;;;;2.60;2.50;;;13.70;79.50;;;;;;10375481;28;20257;-79
2022/05/29 21:13:42;;;;;;;3.07;2.87;;;13.60;80.40;;;;;;10396805;28;20222;-79
2022/05/29 21:18:47;;;;;;;2.93;2.83;;;13.60;79.30;;;;;;10387183;28;20241;-79
2022/05/29 21:23:49;;;;;;;2.93;2.60;;;13.60;78.80;;;;;;10373849;28;20202;-78
2022/05/29 21:28:52;;;;;;;2.97;2.77;;;13.50;80.60;;;;;;10404258;28;20197;-79
2022/05/29 21:33:55;;;;;;;2.90;2.70;;;13.40;80.90;;;;;;10375838;28;20221;-79
2022/05/29 21:39:08;;;;;;;3.40;3.20;;;13.30;80.80;;;;;;10395284;28;20209;-80
2022/05/29 21:44:12;;;;;;;2.97;2.77;;;13.30;81.00;;;;;;10387729;28;20253;-79
2022/05/29 21:49:17;;;;;;;3.30;2.90;;;13.20;81.30;;;;;;10389328;28;20210;-79
2022/05/29 21:54:19;;;;;;;3.13;2.93;;;13.10;82.90;;;;;;10378765;28;20309;-78
2022/05/29 21:59:21;;;;;;;3.13;2.83;;;13.10;82.80;;;;;;10395825;28;20202;-81
2022/05/29 22:04:24;;;;;;;2.87;2.70;;;13.10;83.20;;;;;;10384420;28;20309;-80
2022/05/29 22:09:27;;;;;;;2.93;2.73;;;13.20;83.00;;;;;;10390043;28;20267;-80
2022/05/29 22:14:29;;;;;;;3.20;2.73;;;13.20;82.90;;;;;;10386283;28;20226;-81
2022/05/29 22:19:33;;;;;;;2.83;2.63;;;13.20;83.00;;;;;;10396752;28;20257;-80
2022/05/29 22:24:36;;;;;;;2.90;2.80;;;13.00;83.00;;;;;;10399678;28;20221;-80
2022/05/29 22:29:38;;;;;;;4.23;3.13;;;13.00;83.20;;;;;;10403218;28;20207;-81
2022/05/29 22:34:46;;;;;;;3.30;3.10;;;12.90;82.90;;;;;;10395031;28;20272;-79
2022/05/29 22:39:50;;;;;;;4.70;3.17;;;12.80;83.70;;;;;;10388053;28;20241;-80
2022/05/29 22:44:52;;;;;;;3.20;3.00;;;12.80;83.70;;;;;;10402905;28;20272;-78
2022/05/29 22:50:03;;;;;;;2.57;2.47;;;12.80;84.70;;;;;;10400036;28;20296;-79
2022/05/29 22:55:07;;;;;;;3.67;3.37;;;12.90;84.10;;;;;;10385643;28;20238;-78
2022/05/29 23:00:13;;;;;;;3.23;3.03;;;12.90;83.70;;;;;;10406124;28;20625;-78
2022/05/29 23:05:17;;;;;;;4.13;3.00;;;12.70;83.20;;;;;;10385683;28;20337;-78
2022/05/29 23:10:19;;;;;;;3.30;3.00;;;12.50;82.00;;;;;;10382679;28;20559;-78
2022/05/29 23:15:21;;;;;;;3.10;2.90;;;12.40;84.00;;;;;;10393799;28;20254;-78
2022/05/29 23:20:26;;;;;;;5.17;3.13;;;12.50;84.70;;;;;;10401057;28;20879;-80
2022/05/29 23:25:28;;;;;;;3.10;2.90;;;12.40;83.30;;;;;;10398763;28;20223;-80
2022/05/29 23:30:38;;;;;;;3.10;2.90;;;12.50;84.50;;;;;;10391134;28;20526;-81
2022/05/29 23:35:42;;;;;;;4.57;3.73;;;12.50;85.00;;;;;;10400074;28;20227;-79
2022/05/29 23:40:44;;;;;;;3.30;3.07;;;12.60;84.20;;;;;;10405093;28;20202;-78
2022/05/29 23:45:52;;;;;;;3.33;3.13;;;12.50;84.30;;;;;;10388308;28;20316;-78
2022/05/29 23:50:56;;;;;;;3.50;3.20;;;12.50;84.90;;;;;;10409324;28;20198;-79
2022/05/29 23:55:58;;;;;;;3.97;2.80;;;12.60;84.00;;;;;;10393929;28;20223;-78
